Point Reyes Station, CA (94956)

10:31 AM PST on December 03, 2016 (GMT -0800)
Point Reyes Mesa bluff | | Change Station
Active Advisory: Beach Hazard Statement

Elev 70 ft 38.08 °N, 122.82 °W | Updated 5 seconds ago

Clear
Clear
54.6 °F
Feels Like 54.6 °F
N
0.0
Wind Variable Wind from South
Gusts 1.0 mph

Today
High -- | Low -- °F
--% Chance of Precip.
Yesterday
High -- | Low -- °F
Precip. -- in
Pressure 30.31 in
Visibility 10.0 miles
Clouds Clear
Dew Point 48 °F
Humidity 77%
Rainfall 0.00 in
Snow Depth Not available.
7:11 AM 4:51 PM
Waxing Crescent, 16% visible
METAR KO69 031815Z AUTO 00000KT 10SM CLR 12/03 A3031 RMK AO1
Pressure 30.31 in
Visibility 10.0 miles
Clouds Clear
Dew Point 48 °F
Humidity 77%
Rainfall 0.00 in
Snow Depth Not available.
7:11 AM 4:51 PM
Waxing Crescent, 16% visible
METAR KO69 031815Z AUTO 00000KT 10SM CLR 12/03 A3031 RMK AO1

10-Day Weather Forecast

Almanac

Astronomy

Dec. 03, 2016 Rise Set
Actual Time
Civil Twilight
Nautical Twilight
Astronomical Twilight
Moon
Length of Visible Light
Length of Day
Tomorrow will be .
, % of the Moon is Illuminated

Today's Extremes

State Highs State Lows

Community

WunderPhotos

Upload Photos

1,955,462 photos uploaded!

WunderBlog® & News

Nearby

Air Quality

  Air Quality AQ Index Pollutant
Not available.

Snow Depth

Station Depth Elevation

Earthquake Activity

City Distance Mag. Time & Date
Minimum magnitude displayed is 2.5.

Coastal Water Temperatures

Place Temperature

Stations

Nearby Weather Stations

Station Location Temp. Windchill Dew Point Humidity Wind Precip. Elev Updated Type
                   

Watches & Warnings

Beach Hazard Statement
Issued: 6:24 AM PST Dec. 3, 2016 – National Weather Service

... Beach hazards statement in effect until 6 PM PST this
evening...

The National Weather Service in San Francisco has issued a beach
hazards statement for sneaker waves... which is in effect until 6
PM PST this evening.

* Hazards... large long-period breakers.

* Timing... through 6 PM.

* Location... along the coast from Sonoma County to Monterey
County.

* Potential impacts... potential for sneaker waves and rip
currents.

Precautionary/preparedness actions...

A beach hazard statement for sneaker waves means that conditions
are present to support a heightened risk of unsuspecting beach
goers being swept into the sea by a wave. People walking along the
beach should never turn their back to the sea. Fisherman should
avoid fishing from rocks or jetties.